sensor_id;sensor_type;location;lat;lon;timestamp;P1;durP1;ratioP1;P2;durP2;ratioP2
20914;SDS011;10617;52.032;5.298;2024-02-04T00:03:47;13.98;;;7.53;;
20914;SDS011;10617;52.032;5.298;2024-02-04T00:07:49;15.25;;;6.95;;
20914;SDS011;10617;52.032;5.298;2024-02-04T00:11:51;18.00;;;8.65;;
20914;SDS011;10617;52.032;5.298;2024-02-04T00:15:52;21.52;;;9.02;;
20914;SDS011;10617;52.032;5.298;2024-02-04T00:19:56;16.08;;;8.75;;
20914;SDS011;10617;52.032;5.298;2024-02-04T00:23:58;20.10;;;8.45;;
20914;SDS011;10617;52.032;5.298;2024-02-04T00:28:01;15.52;;;8.35;;
20914;SDS011;10617;52.032;5.298;2024-02-04T00:32:03;23.55;;;8.88;;
20914;SDS011;10617;52.032;5.298;2024-02-04T00:36:05;20.23;;;8.48;;
20914;SDS011;10617;52.032;5.298;2024-02-04T00:40:07;14.15;;;7.65;;
20914;SDS011;10617;52.032;5.298;2024-02-04T00:44:10;14.93;;;7.65;;
20914;SDS011;10617;52.032;5.298;2024-02-04T00:48:12;16.17;;;7.32;;
20914;SDS011;10617;52.032;5.298;2024-02-04T00:52:13;11.02;;;6.35;;
20914;SDS011;10617;52.032;5.298;2024-02-04T00:56:15;15.02;;;7.45;;
20914;SDS011;10617;52.032;5.298;2024-02-04T01:00:17;15.63;;;6.93;;
20914;SDS011;10617;52.032;5.298;2024-02-04T01:04:19;13.95;;;7.22;;
20914;SDS011;10617;52.032;5.298;2024-02-04T01:08:21;15.50;;;6.57;;
20914;SDS011;10617;52.032;5.298;2024-02-04T01:12:23;11.23;;;6.18;;
20914;SDS011;10617;52.032;5.298;2024-02-04T01:16:25;13.73;;;6.30;;
20914;SDS011;10617;52.032;5.298;2024-02-04T01:20:27;13.55;;;6.22;;
20914;SDS011;10617;52.032;5.298;2024-02-04T01:24:29;16.92;;;6.70;;
20914;SDS011;10617;52.032;5.298;2024-02-04T01:33:15;19.48;;;6.03;;
20914;SDS011;10617;52.032;5.298;2024-02-04T01:37:17;15.07;;;6.50;;
20914;SDS011;10617;52.032;5.298;2024-02-04T01:41:19;12.68;;;6.07;;
20914;SDS011;10617;52.032;5.298;2024-02-04T01:45:21;13.25;;;6.60;;
20914;SDS011;10617;52.032;5.298;2024-02-04T01:49:23;11.35;;;5.07;;
20914;SDS011;10617;52.032;5.298;2024-02-04T01:53:25;14.60;;;6.57;;
20914;SDS011;10617;52.032;5.298;2024-02-04T01:57:29;11.80;;;5.55;;
20914;SDS011;10617;52.032;5.298;2024-02-04T02:06:07;14.30;;;5.97;;
20914;SDS011;10617;52.032;5.298;2024-02-04T02:10:09;15.63;;;7.32;;
20914;SDS011;10617;52.032;5.298;2024-02-04T02:14:16;14.70;;;7.13;;
20914;SDS011;10617;52.032;5.298;2024-02-04T02:26:50;17.42;;;8.35;;
20914;SDS011;10617;52.032;5.298;2024-02-04T02:30:52;15.68;;;7.85;;
20914;SDS011;10617;52.032;5.298;2024-02-04T02:35:00;15.15;;;7.38;;
20914;SDS011;10617;52.032;5.298;2024-02-04T02:43:11;13.77;;;7.07;;
20914;SDS011;10617;52.032;5.298;2024-02-04T02:47:14;12.95;;;6.63;;
20914;SDS011;10617;52.032;5.298;2024-02-04T02:51:18;15.05;;;7.32;;
20914;SDS011;10617;52.032;5.298;2024-02-04T02:55:19;13.55;;;6.78;;
20914;SDS011;10617;52.032;5.298;2024-02-04T02:59:21;12.23;;;5.65;;
20914;SDS011;10617;52.032;5.298;2024-02-04T03:03:23;14.85;;;6.00;;
20914;SDS011;10617;52.032;5.298;2024-02-04T03:07:25;16.80;;;6.70;;
20914;SDS011;10617;52.032;5.298;2024-02-04T03:11:27;11.07;;;5.60;;
20914;SDS011;10617;52.032;5.298;2024-02-04T03:15:29;12.45;;;6.18;;
20914;SDS011;10617;52.032;5.298;2024-02-04T03:19:31;11.88;;;5.95;;
20914;SDS011;10617;52.032;5.298;2024-02-04T03:23:33;12.10;;;6.65;;
20914;SDS011;10617;52.032;5.298;2024-02-04T03:27:34;12.48;;;6.03;;
20914;SDS011;10617;52.032;5.298;2024-02-04T03:31:36;13.10;;;5.90;;
20914;SDS011;10617;52.032;5.298;2024-02-04T03:35:38;12.45;;;6.05;;
20914;SDS011;10617;52.032;5.298;2024-02-04T03:39:40;15.57;;;5.88;;
20914;SDS011;10617;52.032;5.298;2024-02-04T03:43:42;13.90;;;5.35;;
20914;SDS011;10617;52.032;5.298;2024-02-04T03:47:44;14.50;;;5.22;;
20914;SDS011;10617;52.032;5.298;2024-02-04T03:51:46;13.65;;;5.47;;
20914;SDS011;10617;52.032;5.298;2024-02-04T03:55:49;12.75;;;4.80;;
20914;SDS011;10617;52.032;5.298;2024-02-04T03:59:50;11.80;;;5.05;;
20914;SDS011;10617;52.032;5.298;2024-02-04T04:03:52;13.23;;;5.13;;
20914;SDS011;10617;52.032;5.298;2024-02-04T04:07:54;11.63;;;5.00;;
20914;SDS011;10617;52.032;5.298;2024-02-04T04:16:51;8.75;;;3.35;;
20914;SDS011;10617;52.032;5.298;2024-02-04T04:20:52;11.30;;;4.40;;
20914;SDS011;10617;52.032;5.298;2024-02-04T04:24:54;10.45;;;4.28;;
20914;SDS011;10617;52.032;5.298;2024-02-04T04:28:56;11.02;;;3.58;;
20914;SDS011;10617;52.032;5.298;2024-02-04T04:32:58;12.90;;;4.20;;
20914;SDS011;10617;52.032;5.298;2024-02-04T04:37:00;9.07;;;4.20;;
20914;SDS011;10617;52.032;5.298;2024-02-04T04:41:02;9.35;;;4.05;;
20914;SDS011;10617;52.032;5.298;2024-02-04T04:45:04;12.07;;;4.90;;
20914;SDS011;10617;52.032;5.298;2024-02-04T04:54:29;9.10;;;3.70;;
20914;SDS011;10617;52.032;5.298;2024-02-04T04:58:31;8.93;;;4.43;;
20914;SDS011;10617;52.032;5.298;2024-02-04T05:02:33;13.00;;;4.22;;
20914;SDS011;10617;52.032;5.298;2024-02-04T05:06:35;8.77;;;4.80;;
20914;SDS011;10617;52.032;5.298;2024-02-04T05:10:37;8.63;;;3.75;;
20914;SDS011;10617;52.032;5.298;2024-02-04T05:14:38;11.35;;;4.15;;
20914;SDS011;10617;52.032;5.298;2024-02-04T05:18:40;10.60;;;5.22;;
20914;SDS011;10617;52.032;5.298;2024-02-04T05:22:42;9.25;;;4.38;;
20914;SDS011;10617;52.032;5.298;2024-02-04T05:26:44;10.73;;;4.65;;
20914;SDS011;10617;52.032;5.298;2024-02-04T05:30:46;14.60;;;5.25;;
20914;SDS011;10617;52.032;5.298;2024-02-04T05:34:48;14.95;;;5.13;;
20914;SDS011;10617;52.032;5.298;2024-02-04T05:38:50;10.55;;;4.70;;
20914;SDS011;10617;52.032;5.298;2024-02-04T05:42:51;11.35;;;4.97;;
20914;SDS011;10617;52.032;5.298;2024-02-04T05:46:53;14.25;;;6.78;;
20914;SDS011;10617;52.032;5.298;2024-02-04T05:50:55;13.50;;;6.78;;
20914;SDS011;10617;52.032;5.298;2024-02-04T05:54:57;18.60;;;7.63;;
20914;SDS011;10617;52.032;5.298;2024-02-04T05:59:03;16.30;;;7.93;;
20914;SDS011;10617;52.032;5.298;2024-02-04T06:03:05;19.50;;;8.15;;
20914;SDS011;10617;52.032;5.298;2024-02-04T06:07:07;15.65;;;7.90;;
20914;SDS011;10617;52.032;5.298;2024-02-04T06:11:10;17.40;;;8.70;;
20914;SDS011;10617;52.032;5.298;2024-02-04T06:15:13;18.70;;;9.75;;
20914;SDS011;10617;52.032;5.298;2024-02-04T06:19:18;15.88;;;8.88;;
20914;SDS011;10617;52.032;5.298;2024-02-04T06:23:20;18.83;;;8.60;;
20914;SDS011;10617;52.032;5.298;2024-02-04T06:27:22;22.38;;;10.77;;
20914;SDS011;10617;52.032;5.298;2024-02-04T06:31:24;20.63;;;10.07;;
20914;SDS011;10617;52.032;5.298;2024-02-04T06:35:25;16.95;;;8.30;;
20914;SDS011;10617;52.032;5.298;2024-02-04T06:39:27;17.23;;;9.30;;
20914;SDS011;10617;52.032;5.298;2024-02-04T06:43:29;18.00;;;10.05;;
20914;SDS011;10617;52.032;5.298;2024-02-04T06:47:35;16.98;;;10.00;;
20914;SDS011;10617;52.032;5.298;2024-02-04T06:51:37;17.75;;;9.93;;
20914;SDS011;10617;52.032;5.298;2024-02-04T06:55:39;17.30;;;8.68;;
20914;SDS011;10617;52.032;5.298;2024-02-04T06:59:41;16.15;;;8.15;;
20914;SDS011;10617;52.032;5.298;2024-02-04T07:03:43;17.65;;;9.20;;
20914;SDS011;10617;52.032;5.298;2024-02-04T07:07:45;12.70;;;7.10;;
20914;SDS011;10617;52.032;5.298;2024-02-04T07:11:47;15.70;;;8.13;;
20914;SDS011;10617;52.032;5.298;2024-02-04T07:15:48;12.80;;;6.88;;
20914;SDS011;10617;52.032;5.298;2024-02-04T07:19:50;14.98;;;6.95;;
20914;SDS011;10617;52.032;5.298;2024-02-04T07:23:52;10.10;;;6.07;;
20914;SDS011;10617;52.032;5.298;2024-02-04T07:27:54;10.80;;;5.90;;
20914;SDS011;10617;52.032;5.298;2024-02-04T07:31:57;11.25;;;5.95;;
20914;SDS011;10617;52.032;5.298;2024-02-04T07:35:59;12.77;;;6.68;;
20914;SDS011;10617;52.032;5.298;2024-02-04T07:40:01;14.35;;;6.47;;
20914;SDS011;10617;52.032;5.298;2024-02-04T07:44:03;17.50;;;8.13;;
20914;SDS011;10617;52.032;5.298;2024-02-04T07:48:06;13.82;;;7.50;;
20914;SDS011;10617;52.032;5.298;2024-02-04T07:52:10;12.88;;;6.50;;
20914;SDS011;10617;52.032;5.298;2024-02-04T07:56:12;16.40;;;7.25;;
20914;SDS011;10617;52.032;5.298;2024-02-04T08:00:14;13.80;;;6.53;;
20914;SDS011;10617;52.032;5.298;2024-02-04T08:04:16;13.55;;;6.63;;
20914;SDS011;10617;52.032;5.298;2024-02-04T08:08:18;9.65;;;5.45;;
20914;SDS011;10617;52.032;5.298;2024-02-04T08:12:20;12.25;;;6.15;;
20914;SDS011;10617;52.032;5.298;2024-02-04T08:16:22;12.98;;;5.53;;
20914;SDS011;10617;52.032;5.298;2024-02-04T08:20:24;11.98;;;5.65;;
20914;SDS011;10617;52.032;5.298;2024-02-04T08:24:25;10.45;;;5.00;;
20914;SDS011;10617;52.032;5.298;2024-02-04T08:28:27;11.27;;;4.65;;
20914;SDS011;10617;52.032;5.298;2024-02-04T08:32:29;7.43;;;4.13;;
20914;SDS011;10617;52.032;5.298;2024-02-04T08:36:31;7.05;;;3.80;;
20914;SDS011;10617;52.032;5.298;2024-02-04T08:40:33;8.52;;;4.18;;
20914;SDS011;10617;52.032;5.298;2024-02-04T08:44:35;12.27;;;5.03;;
20914;SDS011;10617;52.032;5.298;2024-02-04T08:48:43;10.90;;;5.90;;
20914;SDS011;10617;52.032;5.298;2024-02-04T08:52:45;10.77;;;5.63;;
20914;SDS011;10617;52.032;5.298;2024-02-04T08:56:47;14.77;;;6.22;;
20914;SDS011;10617;52.032;5.298;2024-02-04T09:00:49;9.57;;;5.78;;
20914;SDS011;10617;52.032;5.298;2024-02-04T09:04:50;11.30;;;5.40;;
20914;SDS011;10617;52.032;5.298;2024-02-04T09:08:53;8.95;;;5.13;;
20914;SDS011;10617;52.032;5.298;2024-02-04T09:12:54;7.50;;;4.40;;
20914;SDS011;10617;52.032;5.298;2024-02-04T09:16:56;8.00;;;3.63;;
20914;SDS011;10617;52.032;5.298;2024-02-04T09:20:58;8.35;;;3.80;;
20914;SDS011;10617;52.032;5.298;2024-02-04T09:25:00;9.25;;;3.75;;
20914;SDS011;10617;52.032;5.298;2024-02-04T09:33:41;9.00;;;3.25;;
20914;SDS011;10617;52.032;5.298;2024-02-04T09:37:43;8.30;;;3.05;;
20914;SDS011;10617;52.032;5.298;2024-02-04T09:47:07;6.70;;;2.25;;
20914;SDS011;10617;52.032;5.298;2024-02-04T09:51:11;6.50;;;2.25;;
20914;SDS011;10617;52.032;5.298;2024-02-04T09:55:13;5.25;;;1.95;;
20914;SDS011;10617;52.032;5.298;2024-02-04T09:59:18;7.35;;;2.20;;
20914;SDS011;10617;52.032;5.298;2024-02-04T10:03:35;4.22;;;1.80;;
20914;SDS011;10617;52.032;5.298;2024-02-04T10:07:37;4.28;;;1.92;;
20914;SDS011;10617;52.032;5.298;2024-02-04T10:11:39;3.97;;;2.00;;
20914;SDS011;10617;52.032;5.298;2024-02-04T10:20:36;6.20;;;1.92;;
20914;SDS011;10617;52.032;5.298;2024-02-04T10:24:38;3.67;;;1.42;;
20914;SDS011;10617;52.032;5.298;2024-02-04T10:28:40;6.13;;;1.83;;
20914;SDS011;10617;52.032;5.298;2024-02-04T10:32:42;5.63;;;1.40;;
20914;SDS011;10617;52.032;5.298;2024-02-04T10:36:46;4.40;;;1.52;;
20914;SDS011;10617;52.032;5.298;2024-02-04T10:40:48;3.13;;;1.23;;
20914;SDS011;10617;52.032;5.298;2024-02-04T10:44:55;3.45;;;1.20;;
20914;SDS011;10617;52.032;5.298;2024-02-04T10:49:00;2.85;;;1.10;;
20914;SDS011;10617;52.032;5.298;2024-02-04T10:53:05;2.25;;;1.15;;
20914;SDS011;10617;52.032;5.298;2024-02-04T10:57:11;3.60;;;1.58;;
20914;SDS011;10617;52.032;5.298;2024-02-04T11:01:15;3.53;;;1.67;;
20914;SDS011;10617;52.032;5.298;2024-02-04T11:05:17;4.15;;;2.03;;
20914;SDS011;10617;52.032;5.298;2024-02-04T11:09:19;6.68;;;2.90;;
20914;SDS011;10617;52.032;5.298;2024-02-04T11:13:22;5.35;;;2.60;;
20914;SDS011;10617;52.032;5.298;2024-02-04T11:30:33;7.47;;;3.00;;
20914;SDS011;10617;52.032;5.298;2024-02-04T11:34:37;6.07;;;3.50;;
20914;SDS011;10617;52.032;5.298;2024-02-04T11:38:39;8.57;;;3.90;;
20914;SDS011;10617;52.032;5.298;2024-02-04T11:42:41;9.32;;;4.28;;
20914;SDS011;10617;52.032;5.298;2024-02-04T11:46:47;9.73;;;4.45;;
20914;SDS011;10617;52.032;5.298;2024-02-04T11:50:53;8.93;;;4.13;;
20914;SDS011;10617;52.032;5.298;2024-02-04T11:54:57;9.27;;;4.18;;
20914;SDS011;10617;52.032;5.298;2024-02-04T11:58:59;9.20;;;3.97;;
20914;SDS011;10617;52.032;5.298;2024-02-04T12:03:03;6.65;;;3.72;;
20914;SDS011;10617;52.032;5.298;2024-02-04T12:07:06;8.70;;;3.97;;
20914;SDS011;10617;52.032;5.298;2024-02-04T12:11:09;8.60;;;3.92;;
20914;SDS011;10617;52.032;5.298;2024-02-04T12:15:11;9.38;;;3.92;;
20914;SDS011;10617;52.032;5.298;2024-02-04T12:19:13;8.25;;;3.53;;
20914;SDS011;10617;52.032;5.298;2024-02-04T12:23:16;8.68;;;3.35;;
20914;SDS011;10617;52.032;5.298;2024-02-04T12:27:19;8.20;;;3.50;;
20914;SDS011;10617;52.032;5.298;2024-02-04T12:31:25;7.38;;;3.28;;
20914;SDS011;10617;52.032;5.298;2024-02-04T12:35:32;7.75;;;3.42;;
20914;SDS011;10617;52.032;5.298;2024-02-04T12:39:34;8.20;;;3.13;;
20914;SDS011;10617;52.032;5.298;2024-02-04T12:43:36;7.72;;;3.17;;
20914;SDS011;10617;52.032;5.298;2024-02-04T12:47:38;5.95;;;2.70;;
20914;SDS011;10617;52.032;5.298;2024-02-04T12:51:40;7.05;;;3.00;;
20914;SDS011;10617;52.032;5.298;2024-02-04T12:55:41;6.68;;;3.00;;
20914;SDS011;10617;52.032;5.298;2024-02-04T12:59:44;8.23;;;2.72;;
20914;SDS011;10617;52.032;5.298;2024-02-04T13:03:47;7.07;;;2.50;;
20914;SDS011;10617;52.032;5.298;2024-02-04T13:07:55;5.82;;;2.50;;
20914;SDS011;10617;52.032;5.298;2024-02-04T13:12:04;8.07;;;3.65;;
20914;SDS011;10617;52.032;5.298;2024-02-04T13:16:06;7.40;;;3.22;;
20914;SDS011;10617;52.032;5.298;2024-02-04T13:20:09;8.68;;;3.42;;
20914;SDS011;10617;52.032;5.298;2024-02-04T13:24:11;7.50;;;3.45;;
20914;SDS011;10617;52.032;5.298;2024-02-04T13:28:12;9.52;;;4.05;;
20914;SDS011;10617;52.032;5.298;2024-02-04T13:32:14;6.40;;;3.67;;
20914;SDS011;10617;52.032;5.298;2024-02-04T13:36:16;6.68;;;3.40;;
20914;SDS011;10617;52.032;5.298;2024-02-04T13:40:18;8.73;;;3.35;;
20914;SDS011;10617;52.032;5.298;2024-02-04T13:44:21;7.97;;;3.70;;
20914;SDS011;10617;52.032;5.298;2024-02-04T13:48:23;8.43;;;3.20;;
20914;SDS011;10617;52.032;5.298;2024-02-04T13:52:27;10.20;;;3.17;;
20914;SDS011;10617;52.032;5.298;2024-02-04T13:56:29;10.05;;;3.85;;
20914;SDS011;10617;52.032;5.298;2024-02-04T14:00:31;9.20;;;3.05;;
20914;SDS011;10617;52.032;5.298;2024-02-04T14:04:33;7.43;;;2.70;;
20914;SDS011;10617;52.032;5.298;2024-02-04T14:08:35;7.45;;;2.50;;
20914;SDS011;10617;52.032;5.298;2024-02-04T14:12:37;9.73;;;2.33;;
20914;SDS011;10617;52.032;5.298;2024-02-04T14:16:40;5.22;;;2.65;;
20914;SDS011;10617;52.032;5.298;2024-02-04T14:20:42;6.32;;;1.95;;
20914;SDS011;10617;52.032;5.298;2024-02-04T14:24:44;6.25;;;2.42;;
20914;SDS011;10617;52.032;5.298;2024-02-04T14:28:47;13.23;;;2.65;;
20914;SDS011;10617;52.032;5.298;2024-02-04T14:32:49;4.18;;;1.92;;
20914;SDS011;10617;52.032;5.298;2024-02-04T14:36:51;6.90;;;2.35;;
20914;SDS011;10617;52.032;5.298;2024-02-04T14:40:59;6.68;;;2.63;;
20914;SDS011;10617;52.032;5.298;2024-02-04T14:45:00;6.47;;;2.55;;
20914;SDS011;10617;52.032;5.298;2024-02-04T14:54:19;7.68;;;3.00;;
20914;SDS011;10617;52.032;5.298;2024-02-04T14:58:20;11.32;;;3.33;;
20914;SDS011;10617;52.032;5.298;2024-02-04T15:02:23;12.40;;;3.92;;
20914;SDS011;10617;52.032;5.298;2024-02-04T15:06:24;13.73;;;3.72;;
20914;SDS011;10617;52.032;5.298;2024-02-04T15:10:27;8.15;;;2.97;;
20914;SDS011;10617;52.032;5.298;2024-02-04T15:14:29;9.20;;;3.17;;
20914;SDS011;10617;52.032;5.298;2024-02-04T15:18:31;7.03;;;4.18;;
20914;SDS011;10617;52.032;5.298;2024-02-04T15:22:33;12.30;;;3.40;;
20914;SDS011;10617;52.032;5.298;2024-02-04T15:26:35;8.98;;;3.15;;
20914;SDS011;10617;52.032;5.298;2024-02-04T15:30:41;10.75;;;3.45;;
20914;SDS011;10617;52.032;5.298;2024-02-04T15:34:44;11.00;;;3.35;;
20914;SDS011;10617;52.032;5.298;2024-02-04T15:38:46;11.15;;;3.05;;
20914;SDS011;10617;52.032;5.298;2024-02-04T15:42:47;10.10;;;3.00;;
20914;SDS011;10617;52.032;5.298;2024-02-04T15:46:49;7.13;;;2.47;;
20914;SDS011;10617;52.032;5.298;2024-02-04T15:50:55;10.60;;;3.45;;
20914;SDS011;10617;52.032;5.298;2024-02-04T15:54:57;8.30;;;3.28;;
20914;SDS011;10617;52.032;5.298;2024-02-04T15:59:09;11.05;;;3.47;;
20914;SDS011;10617;52.032;5.298;2024-02-04T16:03:12;9.43;;;3.63;;
20914;SDS011;10617;52.032;5.298;2024-02-04T16:07:18;10.68;;;3.33;;
20914;SDS011;10617;52.032;5.298;2024-02-04T16:11:24;12.07;;;3.00;;
20914;SDS011;10617;52.032;5.298;2024-02-04T16:15:27;10.32;;;3.47;;
20914;SDS011;10617;52.032;5.298;2024-02-04T16:19:31;11.27;;;3.10;;
20914;SDS011;10617;52.032;5.298;2024-02-04T16:23:33;15.85;;;3.28;;
20914;SDS011;10617;52.032;5.298;2024-02-04T16:27:35;15.80;;;3.20;;
20914;SDS011;10617;52.032;5.298;2024-02-04T16:31:38;14.60;;;3.53;;
20914;SDS011;10617;52.032;5.298;2024-02-04T16:40:32;11.85;;;3.30;;
20914;SDS011;10617;52.032;5.298;2024-02-04T16:44:34;11.23;;;2.78;;
20914;SDS011;10617;52.032;5.298;2024-02-04T16:48:36;13.23;;;3.97;;
20914;SDS011;10617;52.032;5.298;2024-02-04T16:52:38;13.65;;;3.03;;
20914;SDS011;10617;52.032;5.298;2024-02-04T16:56:40;11.35;;;3.65;;
20914;SDS011;10617;52.032;5.298;2024-02-04T17:00:44;9.93;;;3.50;;
20914;SDS011;10617;52.032;5.298;2024-02-04T17:04:47;8.93;;;3.42;;
20914;SDS011;10617;52.032;5.298;2024-02-04T17:08:54;13.25;;;4.10;;
20914;SDS011;10617;52.032;5.298;2024-02-04T17:12:56;11.07;;;3.90;;
20914;SDS011;10617;52.032;5.298;2024-02-04T17:16:59;9.43;;;3.22;;
20914;SDS011;10617;52.032;5.298;2024-02-04T17:21:11;14.63;;;3.75;;
20914;SDS011;10617;52.032;5.298;2024-02-04T17:25:16;11.75;;;3.28;;
20914;SDS011;10617;52.032;5.298;2024-02-04T17:29:21;11.27;;;3.50;;
20914;SDS011;10617;52.032;5.298;2024-02-04T17:37:50;8.88;;;3.65;;
20914;SDS011;10617;52.032;5.298;2024-02-04T17:41:54;13.77;;;4.22;;
20914;SDS011;10617;52.032;5.298;2024-02-04T17:45:55;13.38;;;4.40;;
20914;SDS011;10617;52.032;5.298;2024-02-04T17:49:57;12.43;;;4.00;;
20914;SDS011;10617;52.032;5.298;2024-02-04T17:54:00;12.23;;;4.28;;
20914;SDS011;10617;52.032;5.298;2024-02-04T17:58:02;12.73;;;3.83;;
20914;SDS011;10617;52.032;5.298;2024-02-04T18:02:05;8.05;;;3.42;;
20914;SDS011;10617;52.032;5.298;2024-02-04T18:06:08;12.63;;;4.13;;
20914;SDS011;10617;52.032;5.298;2024-02-04T18:10:09;11.80;;;3.83;;
20914;SDS011;10617;52.032;5.298;2024-02-04T18:14:12;12.82;;;3.63;;
20914;SDS011;10617;52.032;5.298;2024-02-04T18:18:14;11.98;;;3.58;;
20914;SDS011;10617;52.032;5.298;2024-02-04T18:27:38;9.52;;;3.30;;
20914;SDS011;10617;52.032;5.298;2024-02-04T18:31:42;13.07;;;3.97;;
20914;SDS011;10617;52.032;5.298;2024-02-04T18:35:47;9.20;;;3.08;;
20914;SDS011;10617;52.032;5.298;2024-02-04T18:39:48;10.32;;;3.00;;
20914;SDS011;10617;52.032;5.298;2024-02-04T18:43:50;14.18;;;3.50;;
20914;SDS011;10617;52.032;5.298;2024-02-04T18:47:55;17.60;;;5.22;;
20914;SDS011;10617;52.032;5.298;2024-02-04T18:51:58;10.23;;;3.92;;
20914;SDS011;10617;52.032;5.298;2024-02-04T18:56:03;10.02;;;2.97;;
20914;SDS011;10617;52.032;5.298;2024-02-04T19:05:41;17.33;;;3.35;;
20914;SDS011;10617;52.032;5.298;2024-02-04T19:09:42;13.75;;;3.53;;
20914;SDS011;10617;52.032;5.298;2024-02-04T19:13:44;9.82;;;2.95;;
20914;SDS011;10617;52.032;5.298;2024-02-04T19:17:46;10.68;;;3.03;;
20914;SDS011;10617;52.032;5.298;2024-02-04T19:21:48;11.02;;;3.28;;
20914;SDS011;10617;52.032;5.298;2024-02-04T19:25:50;9.93;;;2.90;;
20914;SDS011;10617;52.032;5.298;2024-02-04T19:29:52;13.32;;;3.00;;
20914;SDS011;10617;52.032;5.298;2024-02-04T19:33:54;15.35;;;3.25;;
20914;SDS011;10617;52.032;5.298;2024-02-04T19:37:56;14.05;;;3.80;;
20914;SDS011;10617;52.032;5.298;2024-02-04T19:41:58;12.60;;;3.53;;
20914;SDS011;10617;52.032;5.298;2024-02-04T19:46:01;9.35;;;3.05;;
20914;SDS011;10617;52.032;5.298;2024-02-04T19:50:05;13.10;;;3.83;;
20914;SDS011;10617;52.032;5.298;2024-02-04T19:54:07;16.58;;;3.72;;
20914;SDS011;10617;52.032;5.298;2024-02-04T20:03:32;13.80;;;3.63;;
20914;SDS011;10617;52.032;5.298;2024-02-04T20:07:34;15.63;;;4.30;;
20914;SDS011;10617;52.032;5.298;2024-02-04T20:11:36;13.15;;;3.88;;
20914;SDS011;10617;52.032;5.298;2024-02-04T20:15:38;10.07;;;3.58;;
20914;SDS011;10617;52.032;5.298;2024-02-04T20:19:40;11.20;;;3.05;;
20914;SDS011;10617;52.032;5.298;2024-02-04T20:23:44;13.95;;;3.25;;
20914;SDS011;10617;52.032;5.298;2024-02-04T20:27:45;11.27;;;2.83;;
20914;SDS011;10617;52.032;5.298;2024-02-04T20:31:47;10.95;;;3.20;;
20914;SDS011;10617;52.032;5.298;2024-02-04T20:35:51;10.38;;;3.22;;
20914;SDS011;10617;52.032;5.298;2024-02-04T20:39:56;11.98;;;3.03;;
20914;SDS011;10617;52.032;5.298;2024-02-04T20:43:58;11.75;;;3.50;;
20914;SDS011;10617;52.032;5.298;2024-02-04T20:48:00;20.70;;;4.47;;
20914;SDS011;10617;52.032;5.298;2024-02-04T20:52:02;13.63;;;3.33;;
20914;SDS011;10617;52.032;5.298;2024-02-04T20:56:04;18.73;;;3.60;;
20914;SDS011;10617;52.032;5.298;2024-02-04T21:00:06;10.65;;;3.28;;
20914;SDS011;10617;52.032;5.298;2024-02-04T21:04:10;13.70;;;3.97;;
20914;SDS011;10617;52.032;5.298;2024-02-04T21:08:12;11.30;;;3.50;;
20914;SDS011;10617;52.032;5.298;2024-02-04T21:12:14;11.75;;;3.65;;
20914;SDS011;10617;52.032;5.298;2024-02-04T21:16:16;12.35;;;3.75;;
20914;SDS011;10617;52.032;5.298;2024-02-04T21:20:19;17.42;;;3.60;;
20914;SDS011;10617;52.032;5.298;2024-02-04T21:24:21;10.55;;;2.90;;
20914;SDS011;10617;52.032;5.298;2024-02-04T21:28:24;9.80;;;2.65;;
20914;SDS011;10617;52.032;5.298;2024-02-04T21:32:28;10.93;;;3.17;;
20914;SDS011;10617;52.032;5.298;2024-02-04T21:41:16;10.32;;;3.30;;
20914;SDS011;10617;52.032;5.298;2024-02-04T21:49:21;18.48;;;3.50;;
20914;SDS011;10617;52.032;5.298;2024-02-04T21:53:23;14.23;;;3.60;;
20914;SDS011;10617;52.032;5.298;2024-02-04T21:57:25;13.63;;;3.03;;
20914;SDS011;10617;52.032;5.298;2024-02-04T22:01:27;10.48;;;3.20;;
20914;SDS011;10617;52.032;5.298;2024-02-04T22:09:56;12.53;;;2.90;;
20914;SDS011;10617;52.032;5.298;2024-02-04T22:13:58;12.77;;;3.45;;
20914;SDS011;10617;52.032;5.298;2024-02-04T22:18:00;12.35;;;2.92;;
20914;SDS011;10617;52.032;5.298;2024-02-04T22:22:02;13.23;;;3.30;;
20914;SDS011;10617;52.032;5.298;2024-02-04T22:26:04;11.55;;;3.33;;
20914;SDS011;10617;52.032;5.298;2024-02-04T22:30:06;12.27;;;3.25;;
20914;SDS011;10617;52.032;5.298;2024-02-04T22:34:09;14.20;;;3.55;;
20914;SDS011;10617;52.032;5.298;2024-02-04T22:38:11;11.23;;;3.60;;
20914;SDS011;10617;52.032;5.298;2024-02-04T22:42:12;14.13;;;3.05;;
20914;SDS011;10617;52.032;5.298;2024-02-04T22:46:14;14.15;;;3.75;;
20914;SDS011;10617;52.032;5.298;2024-02-04T22:50:16;14.15;;;3.65;;
20914;SDS011;10617;52.032;5.298;2024-02-04T22:54:19;15.55;;;3.95;;
20914;SDS011;10617;52.032;5.298;2024-02-04T22:58:21;15.43;;;3.72;;
20914;SDS011;10617;52.032;5.298;2024-02-04T23:02:23;16.13;;;3.30;;
20914;SDS011;10617;52.032;5.298;2024-02-04T23:06:27;17.30;;;3.67;;
20914;SDS011;10617;52.032;5.298;2024-02-04T23:10:29;14.45;;;3.80;;
20914;SDS011;10617;52.032;5.298;2024-02-04T23:14:31;16.55;;;3.67;;
20914;SDS011;10617;52.032;5.298;2024-02-04T23:18:33;14.23;;;3.78;;
20914;SDS011;10617;52.032;5.298;2024-02-04T23:22:35;10.55;;;3.95;;
20914;SDS011;10617;52.032;5.298;2024-02-04T23:26:40;15.82;;;3.58;;
20914;SDS011;10617;52.032;5.298;2024-02-04T23:41:29;13.70;;;3.88;;
20914;SDS011;10617;52.032;5.298;2024-02-04T23:45:31;12.13;;;3.50;;
20914;SDS011;10617;52.032;5.298;2024-02-04T23:49:33;20.70;;;3.88;;
20914;SDS011;10617;52.032;5.298;2024-02-04T23:53:35;16.63;;;4.25;;
20914;SDS011;10617;52.032;5.298;2024-02-04T23:57:37;13.70;;;3.20;;
